Cupsaw Lake, New Jersey
Current Conditions -  °F | °C
As of 3:53 AM on Wednesday 22 Oct 2014 (Local Time) from KCDW Reporting Station
Overcast Overcast  
Wind Chill: 55°   Ceiling: 1100
Heat Index: 55°   Visibility: 10mi
Dew Point: 51°   Wind: 3mph
Humidity: 86%   Direction: 60°ENE
Pressure: 29.89"   Gusts: NA
Location:  41.1036°N, 74.2801°W
Report Text: KCDW 220753Z 06003KT 10SM OVC011 13/11 A2989 RMK AO2 SLP126 T01280106
Loading
Personal Weather Stations






























Interactive Weather Map
Tropical Storm Tracking
New forecast layout! Learn more

10-Day Weather Forecast

Advertisements
Track Severe Weather on mobile